sensor_id;sensor_type;location;lat;lon;timestamp;temperature;humidity
65239;SHT30;51827;51.186;6.926;2022-08-01T00:00:15;23.33;71.12
65239;SHT30;51827;51.186;6.926;2022-08-01T00:01:15;23.36;71.10
65239;SHT30;51827;51.186;6.926;2022-08-01T00:02:15;23.33;71.13
65239;SHT30;51827;51.186;6.926;2022-08-01T00:03:16;23.36;71.08
65239;SHT30;51827;51.186;6.926;2022-08-01T00:04:16;23.32;71.00
65239;SHT30;51827;51.186;6.926;2022-08-01T00:05:16;23.33;71.01
65239;SHT30;51827;51.186;6.926;2022-08-01T00:06:17;23.33;71.11
65239;SHT30;51827;51.186;6.926;2022-08-01T00:07:17;23.33;71.10
65239;SHT30;51827;51.186;6.926;2022-08-01T00:08:17;23.34;71.13
65239;SHT30;51827;51.186;6.926;2022-08-01T00:09:18;23.36;71.07
65239;SHT30;51827;51.186;6.926;2022-08-01T00:10:18;23.32;71.11
65239;SHT30;51827;51.186;6.926;2022-08-01T00:11:19;23.34;71.08
65239;SHT30;51827;51.186;6.926;2022-08-01T00:12:19;23.34;71.10
65239;SHT30;51827;51.186;6.926;2022-08-01T00:13:19;23.33;71.14
65239;SHT30;51827;51.186;6.926;2022-08-01T00:14:20;23.33;71.00
65239;SHT30;51827;51.186;6.926;2022-08-01T00:15:20;23.34;71.07
65239;SHT30;51827;51.186;6.926;2022-08-01T00:16:20;23.32;71.05
65239;SHT30;51827;51.186;6.926;2022-08-01T00:17:21;23.33;71.06
65239;SHT30;51827;51.186;6.926;2022-08-01T00:18:21;23.32;71.07
65239;SHT30;51827;51.186;6.926;2022-08-01T00:19:21;23.30;71.08
65239;SHT30;51827;51.186;6.926;2022-08-01T00:20:21;23.33;71.06
65239;SHT30;51827;51.186;6.926;2022-08-01T00:21:22;23.30;70.98
65239;SHT30;51827;51.186;6.926;2022-08-01T00:22:22;23.32;71.00
65239;SHT30;51827;51.186;6.926;2022-08-01T00:23:22;23.32;71.05
65239;SHT30;51827;51.186;6.926;2022-08-01T00:24:23;23.32;70.92
65239;SHT30;51827;51.186;6.926;2022-08-01T00:25:23;23.32;70.98
65239;SHT30;51827;51.186;6.926;2022-08-01T00:26:23;23.32;70.93
65239;SHT30;51827;51.186;6.926;2022-08-01T00:27:23;23.33;70.97
65239;SHT30;51827;51.186;6.926;2022-08-01T00:28:24;23.33;71.02
65239;SHT30;51827;51.186;6.926;2022-08-01T00:29:24;23.33;71.00
65239;SHT30;51827;51.186;6.926;2022-08-01T00:30:24;23.33;70.95
65239;SHT30;51827;51.186;6.926;2022-08-01T00:31:24;23.32;71.04
65239;SHT30;51827;51.186;6.926;2022-08-01T00:32:25;23.32;70.98
65239;SHT30;51827;51.186;6.926;2022-08-01T00:33:25;23.30;71.07
65239;SHT30;51827;51.186;6.926;2022-08-01T00:34:25;23.32;71.01
65239;SHT30;51827;51.186;6.926;2022-08-01T00:35:26;23.30;71.01
65239;SHT30;51827;51.186;6.926;2022-08-01T00:36:26;23.32;71.04
65239;SHT30;51827;51.186;6.926;2022-08-01T00:37:26;23.32;71.01
65239;SHT30;51827;51.186;6.926;2022-08-01T00:38:26;23.33;71.06
65239;SHT30;51827;51.186;6.926;2022-08-01T00:39:27;23.33;71.04
65239;SHT30;51827;51.186;6.926;2022-08-01T00:40:27;23.34;71.11
65239;SHT30;51827;51.186;6.926;2022-08-01T00:41:27;23.33;71.07
65239;SHT30;51827;51.186;6.926;2022-08-01T00:42:28;23.33;71.10
65239;SHT30;51827;51.186;6.926;2022-08-01T00:43:28;23.32;71.04
65239;SHT30;51827;51.186;6.926;2022-08-01T00:44:28;23.33;70.99
65239;SHT30;51827;51.186;6.926;2022-08-01T00:45:29;23.32;71.02
65239;SHT30;51827;51.186;6.926;2022-08-01T00:46:29;23.29;71.03
65239;SHT30;51827;51.186;6.926;2022-08-01T00:47:29;23.32;71.03
65239;SHT30;51827;51.186;6.926;2022-08-01T00:48:30;23.29;71.10
65239;SHT30;51827;51.186;6.926;2022-08-01T00:49:30;23.30;71.13
65239;SHT30;51827;51.186;6.926;2022-08-01T00:50:31;23.27;71.13
65239;SHT30;51827;51.186;6.926;2022-08-01T00:51:31;23.29;71.20
65239;SHT30;51827;51.186;6.926;2022-08-01T00:52:33;23.29;71.24
65239;SHT30;51827;51.186;6.926;2022-08-01T00:53:34;23.26;71.38
65239;SHT30;51827;51.186;6.926;2022-08-01T00:54:35;23.27;71.29
65239;SHT30;51827;51.186;6.926;2022-08-01T00:55:35;23.27;71.39
65239;SHT30;51827;51.186;6.926;2022-08-01T00:56:35;23.27;71.40
65239;SHT30;51827;51.186;6.926;2022-08-01T00:57:35;23.29;71.38
65239;SHT30;51827;51.186;6.926;2022-08-01T00:58:37;23.27;71.30
65239;SHT30;51827;51.186;6.926;2022-08-01T00:59:38;23.27;71.32
65239;SHT30;51827;51.186;6.926;2022-08-01T01:00:39;23.26;71.31
65239;SHT30;51827;51.186;6.926;2022-08-01T01:01:39;23.29;71.26
65239;SHT30;51827;51.186;6.926;2022-08-01T01:02:40;23.26;71.08
65239;SHT30;51827;51.186;6.926;2022-08-01T01:03:40;23.26;71.23
65239;SHT30;51827;51.186;6.926;2022-08-01T01:04:40;23.29;71.19
65239;SHT30;51827;51.186;6.926;2022-08-01T01:05:48;23.27;71.27
65239;SHT30;51827;51.186;6.926;2022-08-01T01:07:19;23.29;71.13
65239;SHT30;51827;51.186;6.926;2022-08-01T01:08:28;23.26;71.09
65239;SHT30;51827;51.186;6.926;2022-08-01T01:10:52;23.27;71.17
65239;SHT30;51827;51.186;6.926;2022-08-01T01:12:15;23.30;71.15
65239;SHT30;51827;51.186;6.926;2022-08-01T01:14:38;23.29;71.14
65239;SHT30;51827;51.186;6.926;2022-08-01T01:15:59;23.27;71.02
65239;SHT30;51827;51.186;6.926;2022-08-01T01:17:02;23.27;71.08
65239;SHT30;51827;51.186;6.926;2022-08-01T01:18:24;23.27;71.05
65239;SHT30;51827;51.186;6.926;2022-08-01T01:19:28;23.29;71.06
65239;SHT30;51827;51.186;6.926;2022-08-01T01:20:34;23.29;71.01
65239;SHT30;51827;51.186;6.926;2022-08-01T01:27:51;23.26;71.24
65239;SHT30;51827;51.186;6.926;2022-08-01T01:30:06;23.26;71.25
65239;SHT30;51827;51.186;6.926;2022-08-01T01:31:08;23.24;71.33
65239;SHT30;51827;51.186;6.926;2022-08-01T01:32:29;23.24;71.36
65239;SHT30;51827;51.186;6.926;2022-08-01T01:33:31;23.22;71.45
65239;SHT30;51827;51.186;6.926;2022-08-01T01:34:35;23.23;71.44
65239;SHT30;51827;51.186;6.926;2022-08-01T01:35:43;23.22;71.40
65239;SHT30;51827;51.186;6.926;2022-08-01T01:36:45;23.24;71.41
65239;SHT30;51827;51.186;6.926;2022-08-01T01:37:48;23.23;71.38
65239;SHT30;51827;51.186;6.926;2022-08-01T01:38:50;23.22;71.31
65239;SHT30;51827;51.186;6.926;2022-08-01T01:39:52;23.22;71.47
65239;SHT30;51827;51.186;6.926;2022-08-01T01:40:55;23.22;71.38
65239;SHT30;51827;51.186;6.926;2022-08-01T01:41:57;23.22;71.40
65239;SHT30;51827;51.186;6.926;2022-08-01T01:42:58;23.22;71.39
65239;SHT30;51827;51.186;6.926;2022-08-01T01:44:00;23.22;71.45
65239;SHT30;51827;51.186;6.926;2022-08-01T01:45:03;23.20;71.51
65239;SHT30;51827;51.186;6.926;2022-08-01T01:46:05;23.19;71.63
65239;SHT30;51827;51.186;6.926;2022-08-01T01:47:06;23.19;71.65
65239;SHT30;51827;51.186;6.926;2022-08-01T01:48:07;23.19;71.60
65239;SHT30;51827;51.186;6.926;2022-08-01T01:49:10;23.19;71.62
65239;SHT30;51827;51.186;6.926;2022-08-01T01:50:12;23.16;71.63
65239;SHT30;51827;51.186;6.926;2022-08-01T01:51:13;23.19;71.61
65239;SHT30;51827;51.186;6.926;2022-08-01T01:52:16;23.16;71.61
65239;SHT30;51827;51.186;6.926;2022-08-01T01:53:20;23.22;71.58
65239;SHT30;51827;51.186;6.926;2022-08-01T01:54:23;23.19;71.58
65239;SHT30;51827;51.186;6.926;2022-08-01T01:55:25;23.18;71.52
65239;SHT30;51827;51.186;6.926;2022-08-01T01:56:27;23.18;71.55
65239;SHT30;51827;51.186;6.926;2022-08-01T01:57:30;23.18;71.55
65239;SHT30;51827;51.186;6.926;2022-08-01T01:58:34;23.19;71.51
65239;SHT30;51827;51.186;6.926;2022-08-01T01:59:36;23.18;71.52
65239;SHT30;51827;51.186;6.926;2022-08-01T02:00:38;23.19;71.49
65239;SHT30;51827;51.186;6.926;2022-08-01T02:01:39;23.19;71.42
65239;SHT30;51827;51.186;6.926;2022-08-01T02:02:41;23.15;71.51
65239;SHT30;51827;51.186;6.926;2022-08-01T02:03:43;23.15;71.58
65239;SHT30;51827;51.186;6.926;2022-08-01T02:04:45;23.16;71.63
65239;SHT30;51827;51.186;6.926;2022-08-01T02:05:46;23.18;71.63
65239;SHT30;51827;51.186;6.926;2022-08-01T02:06:49;23.16;71.59
65239;SHT30;51827;51.186;6.926;2022-08-01T02:07:51;23.16;71.49
65239;SHT30;51827;51.186;6.926;2022-08-01T02:08:53;23.16;71.50
65239;SHT30;51827;51.186;6.926;2022-08-01T02:09:55;23.16;71.55
65239;SHT30;51827;51.186;6.926;2022-08-01T02:10:56;23.15;71.58
65239;SHT30;51827;51.186;6.926;2022-08-01T02:11:59;23.15;71.60
65239;SHT30;51827;51.186;6.926;2022-08-01T02:13:02;23.16;71.62
65239;SHT30;51827;51.186;6.926;2022-08-01T02:14:03;23.13;71.60
65239;SHT30;51827;51.186;6.926;2022-08-01T02:15:04;23.15;71.54
65239;SHT30;51827;51.186;6.926;2022-08-01T02:16:06;23.15;71.61
65239;SHT30;51827;51.186;6.926;2022-08-01T02:17:09;23.12;71.61
65239;SHT30;51827;51.186;6.926;2022-08-01T02:18:10;23.13;71.63
65239;SHT30;51827;51.186;6.926;2022-08-01T02:19:11;23.13;71.52
65239;SHT30;51827;51.186;6.926;2022-08-01T02:20:12;23.16;71.51
65239;SHT30;51827;51.186;6.926;2022-08-01T02:21:16;23.15;71.51
65239;SHT30;51827;51.186;6.926;2022-08-01T02:22:25;23.13;71.41
65239;SHT30;51827;51.186;6.926;2022-08-01T02:23:31;23.13;71.40
65239;SHT30;51827;51.186;6.926;2022-08-01T02:25:44;23.15;71.48
65239;SHT30;51827;51.186;6.926;2022-08-01T02:26:49;23.13;71.48
65239;SHT30;51827;51.186;6.926;2022-08-01T02:28:29;23.13;71.44
65239;SHT30;51827;51.186;6.926;2022-08-01T02:29:37;23.15;71.41
65239;SHT30;51827;51.186;6.926;2022-08-01T02:30:42;23.13;71.44
65239;SHT30;51827;51.186;6.926;2022-08-01T02:31:44;23.18;71.43
65239;SHT30;51827;51.186;6.926;2022-08-01T02:32:53;23.12;71.42
65239;SHT30;51827;51.186;6.926;2022-08-01T02:34:00;23.12;71.42
65239;SHT30;51827;51.186;6.926;2022-08-01T02:35:02;23.15;71.40
65239;SHT30;51827;51.186;6.926;2022-08-01T02:36:02;23.15;71.44
65239;SHT30;51827;51.186;6.926;2022-08-01T02:37:07;23.10;71.49
65239;SHT30;51827;51.186;6.926;2022-08-01T02:38:10;23.12;71.49
65239;SHT30;51827;51.186;6.926;2022-08-01T02:39:13;23.12;71.44
65239;SHT30;51827;51.186;6.926;2022-08-01T02:40:14;23.12;71.43
65239;SHT30;51827;51.186;6.926;2022-08-01T02:41:21;23.13;71.36
65239;SHT30;51827;51.186;6.926;2022-08-01T02:42:23;23.13;71.34
65239;SHT30;51827;51.186;6.926;2022-08-01T02:43:26;23.13;71.31
65239;SHT30;51827;51.186;6.926;2022-08-01T02:44:34;23.12;71.35
65239;SHT30;51827;51.186;6.926;2022-08-01T02:45:37;23.13;71.31
65239;SHT30;51827;51.186;6.926;2022-08-01T02:46:54;23.13;71.30
65239;SHT30;51827;51.186;6.926;2022-08-01T02:48:00;23.13;71.31
65239;SHT30;51827;51.186;6.926;2022-08-01T02:49:02;23.16;71.27
65239;SHT30;51827;51.186;6.926;2022-08-01T02:50:04;23.15;71.19
65239;SHT30;51827;51.186;6.926;2022-08-01T02:51:06;23.16;71.13
65239;SHT30;51827;51.186;6.926;2022-08-01T02:52:08;23.13;71.17
65239;SHT30;51827;51.186;6.926;2022-08-01T02:53:10;23.13;71.26
65239;SHT30;51827;51.186;6.926;2022-08-01T02:54:13;23.15;71.31
65239;SHT30;51827;51.186;6.926;2022-08-01T02:55:14;23.15;71.29
65239;SHT30;51827;51.186;6.926;2022-08-01T02:56:17;23.12;71.32
65239;SHT30;51827;51.186;6.926;2022-08-01T02:57:20;23.13;71.32
65239;SHT30;51827;51.186;6.926;2022-08-01T02:58:21;23.12;71.27
65239;SHT30;51827;51.186;6.926;2022-08-01T02:59:23;23.15;71.24
65239;SHT30;51827;51.186;6.926;2022-08-01T03:00:24;23.13;71.19
65239;SHT30;51827;51.186;6.926;2022-08-01T03:01:25;23.16;71.16
65239;SHT30;51827;51.186;6.926;2022-08-01T03:02:26;23.16;71.12
65239;SHT30;51827;51.186;6.926;2022-08-01T03:03:27;23.15;71.22
65239;SHT30;51827;51.186;6.926;2022-08-01T03:04:28;23.16;71.25
65239;SHT30;51827;51.186;6.926;2022-08-01T03:05:30;23.16;71.17
65239;SHT30;51827;51.186;6.926;2022-08-01T03:06:32;23.13;71.18
65239;SHT30;51827;51.186;6.926;2022-08-01T03:07:34;23.16;71.21
65239;SHT30;51827;51.186;6.926;2022-08-01T03:08:36;23.18;71.20
65239;SHT30;51827;51.186;6.926;2022-08-01T03:09:42;23.13;71.13
65239;SHT30;51827;51.186;6.926;2022-08-01T03:10:44;23.16;71.15
65239;SHT30;51827;51.186;6.926;2022-08-01T03:11:46;23.15;71.10
65239;SHT30;51827;51.186;6.926;2022-08-01T03:12:49;23.12;71.02
65239;SHT30;51827;51.186;6.926;2022-08-01T03:13:51;23.18;71.03
65239;SHT30;51827;51.186;6.926;2022-08-01T03:14:54;23.13;71.02
65239;SHT30;51827;51.186;6.926;2022-08-01T03:15:55;23.13;71.07
65239;SHT30;51827;51.186;6.926;2022-08-01T03:16:57;23.15;71.10
65239;SHT30;51827;51.186;6.926;2022-08-01T03:18:01;23.13;71.18
65239;SHT30;51827;51.186;6.926;2022-08-01T03:19:03;23.15;71.16
65239;SHT30;51827;51.186;6.926;2022-08-01T03:20:05;23.12;71.22
65239;SHT30;51827;51.186;6.926;2022-08-01T03:21:06;23.13;71.17
65239;SHT30;51827;51.186;6.926;2022-08-01T03:22:11;23.12;71.24
65239;SHT30;51827;51.186;6.926;2022-08-01T03:23:12;23.15;71.20
65239;SHT30;51827;51.186;6.926;2022-08-01T03:24:13;23.13;71.10
65239;SHT30;51827;51.186;6.926;2022-08-01T03:25:15;23.15;71.07
65239;SHT30;51827;51.186;6.926;2022-08-01T03:26:16;23.15;71.14
65239;SHT30;51827;51.186;6.926;2022-08-01T03:27:21;23.15;71.11
65239;SHT30;51827;51.186;6.926;2022-08-01T03:28:22;23.15;71.07
65239;SHT30;51827;51.186;6.926;2022-08-01T03:29:25;23.16;71.07
65239;SHT30;51827;51.186;6.926;2022-08-01T03:30:27;23.13;71.06
65239;SHT30;51827;51.186;6.926;2022-08-01T03:31:29;23.15;71.03
65239;SHT30;51827;51.186;6.926;2022-08-01T03:32:29;23.15;71.04
65239;SHT30;51827;51.186;6.926;2022-08-01T03:33:30;23.16;71.00
65239;SHT30;51827;51.186;6.926;2022-08-01T03:34:30;23.15;71.03
65239;SHT30;51827;51.186;6.926;2022-08-01T03:35:33;23.15;71.03
65239;SHT30;51827;51.186;6.926;2022-08-01T03:36:45;23.16;71.04
65239;SHT30;51827;51.186;6.926;2022-08-01T03:37:48;23.16;70.97
65239;SHT30;51827;51.186;6.926;2022-08-01T03:38:50;23.15;71.08
65239;SHT30;51827;51.186;6.926;2022-08-01T03:40:02;23.13;71.09
65239;SHT30;51827;51.186;6.926;2022-08-01T03:41:09;23.13;71.16
65239;SHT30;51827;51.186;6.926;2022-08-01T03:42:16;23.12;71.19
65239;SHT30;51827;51.186;6.926;2022-08-01T03:43:29;23.13;71.23
65239;SHT30;51827;51.186;6.926;2022-08-01T03:44:31;23.12;71.29
65239;SHT30;51827;51.186;6.926;2022-08-01T03:45:40;23.10;71.26
65239;SHT30;51827;51.186;6.926;2022-08-01T03:46:48;23.10;71.22
65239;SHT30;51827;51.186;6.926;2022-08-01T03:47:56;23.13;71.17
65239;SHT30;51827;51.186;6.926;2022-08-01T03:49:00;23.15;71.16
65239;SHT30;51827;51.186;6.926;2022-08-01T03:50:05;23.13;71.16
65239;SHT30;51827;51.186;6.926;2022-08-01T03:51:07;23.10;71.16
65239;SHT30;51827;51.186;6.926;2022-08-01T03:52:08;23.13;71.12
65239;SHT30;51827;51.186;6.926;2022-08-01T03:53:10;23.13;71.11
65239;SHT30;51827;51.186;6.926;2022-08-01T03:54:12;23.13;71.03
65239;SHT30;51827;51.186;6.926;2022-08-01T03:55:15;23.16;71.14
65239;SHT30;51827;51.186;6.926;2022-08-01T03:56:18;23.13;71.20
65239;SHT30;51827;51.186;6.926;2022-08-01T03:57:19;23.13;71.20
65239;SHT30;51827;51.186;6.926;2022-08-01T03:58:20;23.12;71.20
65239;SHT30;51827;51.186;6.926;2022-08-01T03:59:21;23.12;71.11
65239;SHT30;51827;51.186;6.926;2022-08-01T04:00:22;23.15;71.05
65239;SHT30;51827;51.186;6.926;2022-08-01T04:01:24;23.12;71.17
65239;SHT30;51827;51.186;6.926;2022-08-01T04:02:26;23.13;71.26
65239;SHT30;51827;51.186;6.926;2022-08-01T04:03:27;23.12;71.30
65239;SHT30;51827;51.186;6.926;2022-08-01T04:04:28;23.12;71.29
65239;SHT30;51827;51.186;6.926;2022-08-01T04:05:28;23.09;71.30
65239;SHT30;51827;51.186;6.926;2022-08-01T04:06:29;23.10;71.36
65239;SHT30;51827;51.186;6.926;2022-08-01T04:07:32;23.10;71.35
65239;SHT30;51827;51.186;6.926;2022-08-01T04:08:37;23.12;71.37
65239;SHT30;51827;51.186;6.926;2022-08-01T04:09:37;23.10;71.27
65239;SHT30;51827;51.186;6.926;2022-08-01T04:10:38;23.10;71.23
65239;SHT30;51827;51.186;6.926;2022-08-01T04:11:38;23.13;71.23
65239;SHT30;51827;51.186;6.926;2022-08-01T04:12:39;23.12;71.16
65239;SHT30;51827;51.186;6.926;2022-08-01T04:13:39;23.10;71.20
65239;SHT30;51827;51.186;6.926;2022-08-01T04:14:39;23.12;71.20
65239;SHT30;51827;51.186;6.926;2022-08-01T04:15:40;23.15;71.27
65239;SHT30;51827;51.186;6.926;2022-08-01T04:16:40;23.13;71.33
65239;SHT30;51827;51.186;6.926;2022-08-01T04:17:40;23.12;71.22
65239;SHT30;51827;51.186;6.926;2022-08-01T04:18:40;23.16;71.21
65239;SHT30;51827;51.186;6.926;2022-08-01T04:19:41;23.13;71.20
65239;SHT30;51827;51.186;6.926;2022-08-01T04:20:42;23.15;71.17
65239;SHT30;51827;51.186;6.926;2022-08-01T04:21:42;23.15;71.12
65239;SHT30;51827;51.186;6.926;2022-08-01T04:22:42;23.15;71.11
65239;SHT30;51827;51.186;6.926;2022-08-01T04:23:44;23.16;71.25
65239;SHT30;51827;51.186;6.926;2022-08-01T04:24:47;23.16;71.35
65239;SHT30;51827;51.186;6.926;2022-08-01T04:25:50;23.15;71.30
65239;SHT30;51827;51.186;6.926;2022-08-01T04:26:50;23.16;71.24
65239;SHT30;51827;51.186;6.926;2022-08-01T04:27:51;23.12;71.37
65239;SHT30;51827;51.186;6.926;2022-08-01T04:28:53;23.13;71.51
65239;SHT30;51827;51.186;6.926;2022-08-01T04:29:56;23.12;71.58
65239;SHT30;51827;51.186;6.926;2022-08-01T04:30:58;23.12;71.56
65239;SHT30;51827;51.186;6.926;2022-08-01T04:31:59;23.12;71.63
65239;SHT30;51827;51.186;6.926;2022-08-01T04:33:02;23.12;71.66
65239;SHT30;51827;51.186;6.926;2022-08-01T04:34:05;23.12;71.66
65239;SHT30;51827;51.186;6.926;2022-08-01T04:35:07;23.10;71.62
65239;SHT30;51827;51.186;6.926;2022-08-01T04:36:10;23.12;71.54
65239;SHT30;51827;51.186;6.926;2022-08-01T04:37:12;23.12;71.54
65239;SHT30;51827;51.186;6.926;2022-08-01T04:38:19;23.12;71.51
65239;SHT30;51827;51.186;6.926;2022-08-01T04:39:20;23.10;71.45
65239;SHT30;51827;51.186;6.926;2022-08-01T04:40:21;23.12;71.59
65239;SHT30;51827;51.186;6.926;2022-08-01T04:41:21;23.12;71.53
65239;SHT30;51827;51.186;6.926;2022-08-01T04:42:22;23.12;71.56
65239;SHT30;51827;51.186;6.926;2022-08-01T04:43:22;23.13;71.60
65239;SHT30;51827;51.186;6.926;2022-08-01T04:44:24;23.10;71.56
65239;SHT30;51827;51.186;6.926;2022-08-01T04:45:24;23.13;71.57
65239;SHT30;51827;51.186;6.926;2022-08-01T04:46:27;23.15;71.44
65239;SHT30;51827;51.186;6.926;2022-08-01T04:47:29;23.15;71.48
65239;SHT30;51827;51.186;6.926;2022-08-01T04:48:31;23.13;71.44
65239;SHT30;51827;51.186;6.926;2022-08-01T04:49:34;23.15;71.52
65239;SHT30;51827;51.186;6.926;2022-08-01T04:50:35;23.15;71.56
65239;SHT30;51827;51.186;6.926;2022-08-01T04:51:35;23.16;71.59
65239;SHT30;51827;51.186;6.926;2022-08-01T04:52:36;23.15;71.55
65239;SHT30;51827;51.186;6.926;2022-08-01T04:53:37;23.13;71.52
65239;SHT30;51827;51.186;6.926;2022-08-01T04:54:37;23.15;71.35
65239;SHT30;51827;51.186;6.926;2022-08-01T04:55:38;23.16;71.39
65239;SHT30;51827;51.186;6.926;2022-08-01T04:56:38;23.18;71.36
65239;SHT30;51827;51.186;6.926;2022-08-01T04:57:44;23.19;71.26
65239;SHT30;51827;51.186;6.926;2022-08-01T04:58:45;23.16;71.25
65239;SHT30;51827;51.186;6.926;2022-08-01T04:59:45;23.16;71.29
65239;SHT30;51827;51.186;6.926;2022-08-01T05:00:46;23.18;71.20
65239;SHT30;51827;51.186;6.926;2022-08-01T05:01:49;23.18;71.15
65239;SHT30;51827;51.186;6.926;2022-08-01T05:02:53;23.16;71.18
65239;SHT30;51827;51.186;6.926;2022-08-01T05:03:53;23.18;71.10
65239;SHT30;51827;51.186;6.926;2022-08-01T05:04:53;23.16;71.09
65239;SHT30;51827;51.186;6.926;2022-08-01T05:05:53;23.19;71.08
65239;SHT30;51827;51.186;6.926;2022-08-01T05:06:54;23.18;71.03
65239;SHT30;51827;51.186;6.926;2022-08-01T05:07:54;23.19;71.06
65239;SHT30;51827;51.186;6.926;2022-08-01T05:08:54;23.18;71.02
65239;SHT30;51827;51.186;6.926;2022-08-01T05:09:54;23.20;70.99
65239;SHT30;51827;51.186;6.926;2022-08-01T05:10:55;23.20;70.97
65239;SHT30;51827;51.186;6.926;2022-08-01T05:11:55;23.22;71.00
65239;SHT30;51827;51.186;6.926;2022-08-01T05:12:55;23.19;70.96
65239;SHT30;51827;51.186;6.926;2022-08-01T05:13:55;23.19;70.98
65239;SHT30;51827;51.186;6.926;2022-08-01T05:14:56;23.20;70.95
65239;SHT30;51827;51.186;6.926;2022-08-01T05:15:56;23.23;70.87
65239;SHT30;51827;51.186;6.926;2022-08-01T05:16:56;23.20;70.89
65239;SHT30;51827;51.186;6.926;2022-08-01T05:17:56;23.20;70.91
65239;SHT30;51827;51.186;6.926;2022-08-01T05:18:57;23.22;70.89
65239;SHT30;51827;51.186;6.926;2022-08-01T05:19:57;23.20;70.90
65239;SHT30;51827;51.186;6.926;2022-08-01T05:20:57;23.22;70.89
65239;SHT30;51827;51.186;6.926;2022-08-01T05:21:58;23.23;70.94
65239;SHT30;51827;51.186;6.926;2022-08-01T05:22:59;23.22;70.89
65239;SHT30;51827;51.186;6.926;2022-08-01T05:23:59;23.20;70.92
65239;SHT30;51827;51.186;6.926;2022-08-01T05:24:59;23.20;70.97
65239;SHT30;51827;51.186;6.926;2022-08-01T05:25:59;23.22;70.91
65239;SHT30;51827;51.186;6.926;2022-08-01T05:27:00;23.20;70.84
65239;SHT30;51827;51.186;6.926;2022-08-01T05:28:00;23.20;70.90
65239;SHT30;51827;51.186;6.926;2022-08-01T05:29:00;23.19;70.89
65239;SHT30;51827;51.186;6.926;2022-08-01T05:30:01;23.23;70.82
65239;SHT30;51827;51.186;6.926;2022-08-01T05:31:01;23.20;70.87
65239;SHT30;51827;51.186;6.926;2022-08-01T05:32:02;23.20;70.82
65239;SHT30;51827;51.186;6.926;2022-08-01T05:33:02;23.19;70.86
65239;SHT30;51827;51.186;6.926;2022-08-01T05:34:03;23.22;70.91
65239;SHT30;51827;51.186;6.926;2022-08-01T05:35:03;23.20;70.87
65239;SHT30;51827;51.186;6.926;2022-08-01T05:36:04;23.20;70.89
65239;SHT30;51827;51.186;6.926;2022-08-01T05:37:04;23.19;70.87
65239;SHT30;51827;51.186;6.926;2022-08-01T05:38:05;23.23;70.86
65239;SHT30;51827;51.186;6.926;2022-08-01T05:39:05;23.23;70.75
65239;SHT30;51827;51.186;6.926;2022-08-01T05:40:05;23.22;70.81
65239;SHT30;51827;51.186;6.926;2022-08-01T05:41:06;23.20;70.83
65239;SHT30;51827;51.186;6.926;2022-08-01T05:42:06;23.22;70.79
65239;SHT30;51827;51.186;6.926;2022-08-01T05:43:06;23.19;70.81
65239;SHT30;51827;51.186;6.926;2022-08-01T05:44:07;23.19;70.75
65239;SHT30;51827;51.186;6.926;2022-08-01T05:45:08;23.20;70.73
65239;SHT30;51827;51.186;6.926;2022-08-01T05:46:08;23.20;70.69
65239;SHT30;51827;51.186;6.926;2022-08-01T05:47:08;23.20;70.69
65239;SHT30;51827;51.186;6.926;2022-08-01T05:48:09;23.23;70.64
65239;SHT30;51827;51.186;6.926;2022-08-01T05:49:09;23.23;70.66
65239;SHT30;51827;51.186;6.926;2022-08-01T05:50:09;23.22;70.60
65239;SHT30;51827;51.186;6.926;2022-08-01T05:51:09;23.23;70.59
65239;SHT30;51827;51.186;6.926;2022-08-01T05:52:10;23.20;70.60
65239;SHT30;51827;51.186;6.926;2022-08-01T05:53:10;23.22;70.57
65239;SHT30;51827;51.186;6.926;2022-08-01T05:54:11;23.24;70.57
65239;SHT30;51827;51.186;6.926;2022-08-01T05:55:11;23.26;70.57
65239;SHT30;51827;51.186;6.926;2022-08-01T05:56:11;23.26;70.52
65239;SHT30;51827;51.186;6.926;2022-08-01T05:57:11;23.24;70.50
65239;SHT30;51827;51.186;6.926;2022-08-01T05:58:12;23.24;70.49
65239;SHT30;51827;51.186;6.926;2022-08-01T05:59:12;23.26;70.46
65239;SHT30;51827;51.186;6.926;2022-08-01T06:00:12;23.26;70.48
65239;SHT30;51827;51.186;6.926;2022-08-01T06:01:13;23.23;70.42
65239;SHT30;51827;51.186;6.926;2022-08-01T06:02:13;23.24;70.38
65239;SHT30;51827;51.186;6.926;2022-08-01T06:03:13;23.23;70.41
65239;SHT30;51827;51.186;6.926;2022-08-01T06:04:14;23.24;70.40
65239;SHT30;51827;51.186;6.926;2022-08-01T06:05:15;23.23;70.45
65239;SHT30;51827;51.186;6.926;2022-08-01T06:06:15;23.24;70.42
65239;SHT30;51827;51.186;6.926;2022-08-01T06:07:15;23.26;70.40
65239;SHT30;51827;51.186;6.926;2022-08-01T06:08:16;23.26;70.37
65239;SHT30;51827;51.186;6.926;2022-08-01T06:09:16;23.26;70.37
65239;SHT30;51827;51.186;6.926;2022-08-01T06:10:16;23.24;70.35
65239;SHT30;51827;51.186;6.926;2022-08-01T06:11:17;23.24;70.33
65239;SHT30;51827;51.186;6.926;2022-08-01T06:12:17;23.26;70.30
65239;SHT30;51827;51.186;6.926;2022-08-01T06:13:17;23.26;70.31
65239;SHT30;51827;51.186;6.926;2022-08-01T06:14:17;23.27;70.25
65239;SHT30;51827;51.186;6.926;2022-08-01T06:15:18;23.24;70.28
65239;SHT30;51827;51.186;6.926;2022-08-01T06:16:18;23.26;70.32
65239;SHT30;51827;51.186;6.926;2022-08-01T06:17:18;23.27;70.23
65239;SHT30;51827;51.186;6.926;2022-08-01T06:18:19;23.27;70.26
65239;SHT30;51827;51.186;6.926;2022-08-01T06:19:19;23.27;70.23
65239;SHT30;51827;51.186;6.926;2022-08-01T06:20:19;23.26;70.19
65239;SHT30;51827;51.186;6.926;2022-08-01T06:21:20;23.26;70.24
65239;SHT30;51827;51.186;6.926;2022-08-01T06:22:21;23.27;70.22
65239;SHT30;51827;51.186;6.926;2022-08-01T06:23:21;23.27;70.19
65239;SHT30;51827;51.186;6.926;2022-08-01T06:24:22;23.24;70.15
65239;SHT30;51827;51.186;6.926;2022-08-01T06:25:22;23.26;70.18
65239;SHT30;51827;51.186;6.926;2022-08-01T06:26:22;23.26;70.21
65239;SHT30;51827;51.186;6.926;2022-08-01T06:27:23;23.26;70.25
65239;SHT30;51827;51.186;6.926;2022-08-01T06:28:23;23.26;70.22
65239;SHT30;51827;51.186;6.926;2022-08-01T06:29:24;23.26;70.28
65239;SHT30;51827;51.186;6.926;2022-08-01T06:30:24;23.26;70.24
65239;SHT30;51827;51.186;6.926;2022-08-01T06:31:24;23.26;70.26
65239;SHT30;51827;51.186;6.926;2022-08-01T06:32:25;23.26;70.31
65239;SHT30;51827;51.186;6.926;2022-08-01T06:33:26;23.27;70.28
65239;SHT30;51827;51.186;6.926;2022-08-01T06:34:26;23.26;70.25
65239;SHT30;51827;51.186;6.926;2022-08-01T06:35:27;23.26;70.17
65239;SHT30;51827;51.186;6.926;2022-08-01T06:36:27;23.29;70.11
65239;SHT30;51827;51.186;6.926;2022-08-01T06:37:31;23.27;70.19
65239;SHT30;51827;51.186;6.926;2022-08-01T06:38:31;23.27;70.16
65239;SHT30;51827;51.186;6.926;2022-08-01T06:39:31;23.26;70.12
65239;SHT30;51827;51.186;6.926;2022-08-01T06:40:32;23.24;70.14
65239;SHT30;51827;51.186;6.926;2022-08-01T06:41:32;23.29;70.14
65239;SHT30;51827;51.186;6.926;2022-08-01T06:42:33;23.26;70.11